Quantum Of The Seas — C6BH8 — position and weather

sailwx.info

Track history (hours):
 
Tides and Currents Weather Stations Pressure Air Temp Water Temp Dewpoint Dewpoint Depression Visibility Wind Speed Wind Dir Waves Ship Positions

Quantum Of The Seas

Last reported at 2017-Jun-23 17:00 UTC. Time now 2017-Jun-23 18:56 UTC.
Position N 32°24' E 128°18'.

Length 348 m; draft 9 m.

Type: Passenger vessel. MMSI: 311000267.

Wind from 350 at 5 knots

Barometer 1004.9 mb
Visibility: greater than 10.8 NM

Date/timePositionNaut miles runAvg speedWind from/ knotsBaromVisibWave heightAir tempDewpointWater temp
2017-Jun-23 17:00N 32°24' E 128°18'10 5.1 350 / 51004.910.8
2017-Jun-23 15:00N 32°24' E 128°06'16816.8 360 / 61004.9 5.4 23.0 22.0
2017-Jun-23 05:00N 31°42' E 124°54'14211.0 050 / 151005.9 5.4 22.0 23.0
2017-Jun-22 16:07N 31°10' E 122°12'214.8
2017-Jun-22 15:58N 31°11' E 122°10'614.0
2017-Jun-22 15:31N 31°14' E 122°03'713.4
2017-Jun-22 15:00N 31°15' E 121°55'1212.2
2017-Jun-22 14:00N 31°20' E 121°42'2 4.6
2017-Jun-22 13:30N 31°21' E 121°40'3 6.6
2017-Jun-22 13:00N 31°23' E 121°36'4 8.3
2017-Jun-22 12:30N 31°24' E 121°32'1 2.1
2017-Jun-22 11:51N 31°25' E 121°30'0 0.0
2017-Jun-22 11:27N 31°25' E 121°30'0 0.0
2017-Jun-22 10:57N 31°25' E 121°30'0 0.0
2017-Jun-22 10:27N 31°25' E 121°30'0 0.0
2017-Jun-22 09:57N 31°25' E 121°30'0 0.0
2017-Jun-22 09:15N 31°25' E 121°30'0 0.0
2017-Jun-22 08:51N 31°25' E 121°30'0 0.0
2017-Jun-22 08:27N 31°25' E 121°30'0 0.0
2017-Jun-22 07:57N 31°25' E 121°30'0 0.0
2017-Jun-22 07:27N 31°25' E 121°30'0 0.0
2017-Jun-22 06:45N 31°25' E 121°30'0 0.0
2017-Jun-22 06:27N 31°25' E 121°30'0 0.0
2017-Jun-22 05:57N 31°25' E 121°30'0 0.0
2017-Jun-22 05:21N 31°25' E 121°30'0 0.0
2017-Jun-22 04:57N 31°25' E 121°30'0 0.0
2017-Jun-22 04:27N 31°25' E 121°30'0 0.0
2017-Jun-22 03:57N 31°25' E 121°30'0 0.0
2017-Jun-22 03:15N 31°25' E 121°30'0 0.0
2017-Jun-22 02:57N 31°25' E 121°30'0 0.1
2017-Jun-22 02:27N 31°25' E 121°30'0 0.1
2017-Jun-22 01:57N 31°25' E 121°30'0 0.0
2017-Jun-22 01:27N 31°25' E 121°30'0 0.0
2017-Jun-22 00:51N 31°25' E 121°30'0 0.0
2017-Jun-22 00:09N 31°25' E 121°30'0 0.0
2017-Jun-21 23:57N 31°25' E 121°30'0 0.0
2017-Jun-21 23:15N 31°25' E 121°30'0 0.2
2017-Jun-21 23:00N 31°25' E 121°30'1 2.5
2017-Jun-21 22:30N 31°25' E 121°32'3 6.7
2017-Jun-21 22:00N 31°23' E 121°35'611.5
2017-Jun-21 21:30N 31°20' E 121°41'613.3
2017-Jun-21 21:00N 31°18' E 121°48'713.4
2017-Jun-21 20:30N 31°16' E 121°55'612.5
2017-Jun-21 20:00N 31°14' E 122°03'4 7.6
2017-Jun-21 19:30N 31°13' E 122°07'4 7.9
2017-Jun-21 19:00N 31°11' E 122°11'612.1
2017-Jun-21 18:31N 31°07' E 122°16'714.3
2017-Jun-21 18:00N 31°06' E 122°25'6112.2
2017-Jun-21 13:00N 31°06' E 123°36'12413.7 130 / 151006.9 5.4 22.0 22.0
2017-Jun-21 04:00N 31°00' E 126°00'14418.0 220 / 51007.9 5.4 25.0 24.0
2017-Jun-20 20:00N 31°00' E 128°48'2612.9 320 / 351000.910.8
2017-Jun-20 18:00N 31°00' E 129°18'3115.7 250 / 50998.910.8
2017-Jun-20 16:00N 30°54' E 129°54'147 6.7 210 / 38998.8 5.4 24.0 25.0
2017-Jun-19 18:00N 32°06' E 132°24'7114.1 180 / 211009.910.8
2017-Jun-19 13:00N 33°00' E 133°18'60 3.3 240 / 191011.9 5.4 24.0 23.0
2017-Jun-18 19:00N 32°12' E 132°36'12117.2 240 / 151010.910.8
2017-Jun-18 12:00N 30°54' E 130°48'31419.6 360 / 101010.9 5.4 21.0 21.0
2017-Jun-17 20:00N 31°00' E 124°42'3115.4 090 / 121009.9 5.4
2017-Jun-17 18:00N 31°00' E 124°06'10017.4 100 / 131008.910.8
2017-Jun-17 12:15N 31°11' E 122°10'413.2
2017-Jun-17 11:57N 31°13' E 122°06'612.4
2017-Jun-17 11:30N 31°15' E 122°00'611.7
2017-Jun-17 11:00N 31°16' E 121°53'510.1
2017-Jun-17 10:30N 31°18' E 121°48'5 9.4
2017-Jun-17 10:00N 31°19' E 121°43'4 8.5
2017-Jun-17 09:30N 31°22' E 121°38'4 8.8
2017-Jun-17 09:00N 31°24' E 121°34'3 6.8
2017-Jun-17 08:30N 31°25' E 121°30'0 0.3
2017-Jun-17 07:55N 31°25' E 121°30'0 0.0
2017-Jun-17 07:25N 31°25' E 121°30'0 0.0
2017-Jun-17 06:58N 31°25' E 121°30'0 0.0
2017-Jun-17 06:28N 31°25' E 121°30'0 0.0
2017-Jun-17 05:43N 31°25' E 121°30'0 0.0
2017-Jun-17 05:19N 31°25' E 121°30'0 0.0
2017-Jun-17 04:43N 31°25' E 121°30'0 0.0
2017-Jun-17 04:16N 31°25' E 121°30'0 0.0
2017-Jun-17 03:55N 31°25' E 121°30'0 0.0
2017-Jun-17 03:28N 31°25' E 121°30'0 0.0
2017-Jun-17 02:52N 31°25' E 121°30'0 0.0
2017-Jun-17 02:28N 31°25' E 121°30'0 0.0
2017-Jun-17 01:58N 31°25' E 121°30'0 0.0
2017-Jun-17 01:28N 31°25' E 121°30'0 0.0
2017-Jun-17 00:52N 31°25' E 121°30'0 0.0
2017-Jun-17 00:28N 31°25' E 121°30'0 0.0
2017-Jun-16 23:58N 31°25' E 121°30'0 0.0
2017-Jun-16 23:28N 31°25' E 121°30'0 0.0
2017-Jun-16 22:58N 31°25' E 121°30'0 0.0
2017-Jun-16 22:22N 31°25' E 121°30'0 0.0
2017-Jun-16 21:52N 31°25' E 121°30'0 0.0
2017-Jun-16 21:28N 31°25' E 121°30'0 0.0
2017-Jun-16 20:58N 31°25' E 121°30'0 0.0
2017-Jun-16 20:25N 31°25' E 121°30'0 0.0
2017-Jun-16 19:58N 31°25' E 121°30'0 0.0
2017-Jun-16 19:28N 31°25' E 121°30'0 0.0
2017-Jun-16 18:58N 31°25' E 121°30'0 0.0
2017-Jun-16 18:28N 31°25' E 121°30'0 0.0
2017-Jun-16 17:58N 31°25' E 121°30'0 0.0
2017-Jun-16 17:19N 31°25' E 121°30'0 0.1
2017-Jun-16 17:00N 31°25' E 121°30'2 3.6
2017-Jun-16 16:30N 31°24' E 121°32'611.4
2017-Jun-16 16:00N 31°22' E 121°38'511.1
2017-Jun-16 15:31N 31°19' E 121°44'714.9
2017-Jun-16 15:01N 31°16' E 121°52'1414.2
2017-Jun-16 14:00N 31°12' E 122°08'714.7
2017-Jun-16 13:30N 31°08' E 122°15'714.3
2017-Jun-16 13:01N 31°06' E 122°23'5919.8
2017-Jun-16 10:03N 31°08' E 123°32'321.1
2017-Jun-16 09:54N 31°09' E 123°35'921.6
2017-Jun-16 09:29N 31°09' E 123°45'599133.4
2017-Jun-16 05:00N 21°18' E 125°36'63270.3 320 / 61009.910.8 23.0 23.0
2017-Jun-15 20:00N 31°36' E 128°06'1616.5 270 / 101008.910.8
2017-Jun-15 19:00N 31°42' E 128°24'5112.8 270 / 101008.910.8
2017-Jun-15 15:00N 31°48' E 129°24'269 6.3 330 / 131008.9 5.4 22.0 25.0
2017-Jun-13 20:00N 31°06' E 124°12'2110.3 050 / 291009.9 5.4 21.0
2017-Jun-13 18:00N 31°06' E 123°48'   030 / 221009.9 5.4 21.0 24.0
Track history (hours):
 
Tides and Currents Weather Stations Pressure Air Temp Water Temp Dewpoint Dewpoint Depression Visibility Wind Speed Wind Dir Waves Ship Positions

Quantum Of The Seas

Last reported at 2017-Jun-23 17:00 UTC. Time now 2017-Jun-23 18:56 UTC.
Position N 32°24' E 128°18'.

Length 348 m; draft 9 m.

Type: Passenger vessel. MMSI: 311000267.

Wind from 350 at 5 knots

Barometer 1004.9 mb
Visibility: greater than 10.8 NM

Date/timePositionNaut miles runAvg speedWind from/ knotsBaromVisibWave heightAir tempDewpointWater temp
2017-Jun-23 17:00N 32°24' E 128°18'10 5.1 350 / 51004.910.8
2017-Jun-23 15:00N 32°24' E 128°06'16816.8 360 / 61004.9 5.4 23.0 22.0
2017-Jun-23 05:00N 31°42' E 124°54'14211.0 050 / 151005.9 5.4 22.0 23.0
2017-Jun-22 16:07N 31°10' E 122°12'214.8
2017-Jun-22 15:58N 31°11' E 122°10'614.0
2017-Jun-22 15:31N 31°14' E 122°03'713.4
2017-Jun-22 15:00N 31°15' E 121°55'1212.2
2017-Jun-22 14:00N 31°20' E 121°42'2 4.6
2017-Jun-22 13:30N 31°21' E 121°40'3 6.6
2017-Jun-22 13:00N 31°23' E 121°36'4 8.3
2017-Jun-22 12:30N 31°24' E 121°32'1 2.1
2017-Jun-22 11:51N 31°25' E 121°30'0 0.0
2017-Jun-22 11:27N 31°25' E 121°30'0 0.0
2017-Jun-22 10:57N 31°25' E 121°30'0 0.0
2017-Jun-22 10:27N 31°25' E 121°30'0 0.0
2017-Jun-22 09:57N 31°25' E 121°30'0 0.0
2017-Jun-22 09:15N 31°25' E 121°30'0 0.0
2017-Jun-22 08:51N 31°25' E 121°30'0 0.0
2017-Jun-22 08:27N 31°25' E 121°30'0 0.0
2017-Jun-22 07:57N 31°25' E 121°30'0 0.0
2017-Jun-22 07:27N 31°25' E 121°30'0 0.0
2017-Jun-22 06:45N 31°25' E 121°30'0 0.0
2017-Jun-22 06:27N 31°25' E 121°30'0 0.0
2017-Jun-22 05:57N 31°25' E 121°30'0 0.0
2017-Jun-22 05:21N 31°25' E 121°30'0 0.0
2017-Jun-22 04:57N 31°25' E 121°30'0 0.0
2017-Jun-22 04:27N 31°25' E 121°30'0 0.0
2017-Jun-22 03:57N 31°25' E 121°30'0 0.0
2017-Jun-22 03:15N 31°25' E 121°30'0 0.0
2017-Jun-22 02:57N 31°25' E 121°30'0 0.1
2017-Jun-22 02:27N 31°25' E 121°30'0 0.1
2017-Jun-22 01:57N 31°25' E 121°30'0 0.0
2017-Jun-22 01:27N 31°25' E 121°30'0 0.0
2017-Jun-22 00:51N 31°25' E 121°30'0 0.0
2017-Jun-22 00:09N 31°25' E 121°30'0 0.0
2017-Jun-21 23:57N 31°25' E 121°30'0 0.0
2017-Jun-21 23:15N 31°25' E 121°30'0 0.2
2017-Jun-21 23:00N 31°25' E 121°30'1 2.5
2017-Jun-21 22:30N 31°25' E 121°32'3 6.7
2017-Jun-21 22:00N 31°23' E 121°35'611.5
2017-Jun-21 21:30N 31°20' E 121°41'613.3
2017-Jun-21 21:00N 31°18' E 121°48'713.4
2017-Jun-21 20:30N 31°16' E 121°55'612.5
2017-Jun-21 20:00N 31°14' E 122°03'4 7.6
2017-Jun-21 19:30N 31°13' E 122°07'4 7.9
2017-Jun-21 19:00N 31°11' E 122°11'612.1
2017-Jun-21 18:31N 31°07' E 122°16'714.3
2017-Jun-21 18:00N 31°06' E 122°25'6112.2
2017-Jun-21 13:00N 31°06' E 123°36'12413.7 130 / 151006.9 5.4 22.0 22.0
2017-Jun-21 04:00N 31°00' E 126°00'14418.0 220 / 51007.9 5.4 25.0 24.0
2017-Jun-20 20:00N 31°00' E 128°48'2612.9 320 / 351000.910.8
2017-Jun-20 18:00N 31°00' E 129°18'3115.7 250 / 50998.910.8
2017-Jun-20 16:00N 30°54' E 129°54'147 6.7 210 / 38998.8 5.4 24.0 25.0
2017-Jun-19 18:00N 32°06' E 132°24'7114.1 180 / 211009.910.8
2017-Jun-19 13:00N 33°00' E 133°18'60 3.3 240 / 191011.9 5.4 24.0 23.0
2017-Jun-18 19:00N 32°12' E 132°36'12117.2 240 / 151010.910.8
2017-Jun-18 12:00N 30°54' E 130°48'31419.6 360 / 101010.9 5.4 21.0 21.0
2017-Jun-17 20:00N 31°00' E 124°42'3115.4 090 / 121009.9 5.4
2017-Jun-17 18:00N 31°00' E 124°06'10017.4 100 / 131008.910.8
2017-Jun-17 12:15N 31°11' E 122°10'413.2
2017-Jun-17 11:57N 31°13' E 122°06'612.4
2017-Jun-17 11:30N 31°15' E 122°00'611.7
2017-Jun-17 11:00N 31°16' E 121°53'510.1
2017-Jun-17 10:30N 31°18' E 121°48'5 9.4
2017-Jun-17 10:00N 31°19' E 121°43'4 8.5
2017-Jun-17 09:30N 31°22' E 121°38'4 8.8
2017-Jun-17 09:00N 31°24' E 121°34'3 6.8
2017-Jun-17 08:30N 31°25' E 121°30'0 0.3
2017-Jun-17 07:55N 31°25' E 121°30'0 0.0
2017-Jun-17 07:25N 31°25' E 121°30'0 0.0
2017-Jun-17 06:58N 31°25' E 121°30'0 0.0
2017-Jun-17 06:28N 31°25' E 121°30'0 0.0
2017-Jun-17 05:43N 31°25' E 121°30'0 0.0
2017-Jun-17 05:19N 31°25' E 121°30'0 0.0
2017-Jun-17 04:43N 31°25' E 121°30'0 0.0
2017-Jun-17 04:16N 31°25' E 121°30'0 0.0
2017-Jun-17 03:55N 31°25' E 121°30'0 0.0
2017-Jun-17 03:28N 31°25' E 121°30'0 0.0
2017-Jun-17 02:52N 31°25' E 121°30'0 0.0
2017-Jun-17 02:28N 31°25' E 121°30'0 0.0
2017-Jun-17 01:58N 31°25' E 121°30'0 0.0
2017-Jun-17 01:28N 31°25' E 121°30'0 0.0
2017-Jun-17 00:52N 31°25' E 121°30'0 0.0
2017-Jun-17 00:28N 31°25' E 121°30'0 0.0
2017-Jun-16 23:58N 31°25' E 121°30'0 0.0
2017-Jun-16 23:28N 31°25' E 121°30'0 0.0
2017-Jun-16 22:58N 31°25' E 121°30'0 0.0
2017-Jun-16 22:22N 31°25' E 121°30'0 0.0
2017-Jun-16 21:52N 31°25' E 121°30'0 0.0
2017-Jun-16 21:28N 31°25' E 121°30'0 0.0
2017-Jun-16 20:58N 31°25' E 121°30'0 0.0
2017-Jun-16 20:25N 31°25' E 121°30'0 0.0
2017-Jun-16 19:58N 31°25' E 121°30'0 0.0
2017-Jun-16 19:28N 31°25' E 121°30'0 0.0
2017-Jun-16 18:58N 31°25' E 121°30'0 0.0
2017-Jun-16 18:28N 31°25' E 121°30'0 0.0
2017-Jun-16 17:58N 31°25' E 121°30'0 0.0
2017-Jun-16 17:19N 31°25' E 121°30'0 0.1
2017-Jun-16 17:00N 31°25' E 121°30'2 3.6
2017-Jun-16 16:30N 31°24' E 121°32'611.4
2017-Jun-16 16:00N 31°22' E 121°38'511.1
2017-Jun-16 15:31N 31°19' E 121°44'714.9
2017-Jun-16 15:01N 31°16' E 121°52'1414.2
2017-Jun-16 14:00N 31°12' E 122°08'714.7
2017-Jun-16 13:30N 31°08' E 122°15'714.3
2017-Jun-16 13:01N 31°06' E 122°23'5919.8
2017-Jun-16 10:03N 31°08' E 123°32'321.1
2017-Jun-16 09:54N 31°09' E 123°35'921.6
2017-Jun-16 09:29N 31°09' E 123°45'599133.4
2017-Jun-16 05:00N 21°18' E 125°36'63270.3 320 / 61009.910.8 23.0 23.0
2017-Jun-15 20:00N 31°36' E 128°06'1616.5 270 / 101008.910.8
2017-Jun-15 19:00N 31°42' E 128°24'5112.8 270 / 101008.910.8
2017-Jun-15 15:00N 31°48' E 129°24'269 6.3 330 / 131008.9 5.4 22.0 25.0
2017-Jun-13 20:00N 31°06' E 124°12'2110.3 050 / 291009.9 5.4 21.0
2017-Jun-13 18:00N 31°06' E 123°48'   030 / 221009.9 5.4 21.0 24.0

Dump ship's entire track history